Time;durP1;ratioP1;P1;durP2;ratioP2;P2;SDS_P1;SDS_P2;PMS_P1;PMS_P2;Temp;Humidity;BMP_temperature;BMP_pressure;BME280_temperature;BME280_humidity;BME280_pressure;Samples;Min_cycle;Max_cycle;Signal;HPM_P1;HPM_P2
2021/06/18 00:00:52;;;;;;;;;;;;;;;20.18;62.11;100379.48;1654313;87;20132;-87
2021/06/18 00:03:17;;;;;;;;;;;;;;;20.10;62.19;100376.31;1654459;87;20136;-87
2021/06/18 00:05:43;;;;;;;;;;;;;;;20.05;62.47;100375.50;1654521;87;20173;-87
2021/06/18 00:08:09;;;;;;;;;;;;;;;20.01;62.47;100382.72;1654358;86;20174;-87
2021/06/18 00:10:35;;;;;;;;;;;;;;;19.96;62.68;100374.34;1654318;86;20185;-87
2021/06/18 00:13:01;;;;;;;;;;;;;;;19.90;62.72;100375.34;1654443;86;20138;-87
2021/06/18 00:15:27;;;;;;;;;;;;;;;19.86;62.80;100378.55;1654584;86;20158;-87
2021/06/18 00:17:53;;;;;;;;;;;;;;;19.81;62.96;100374.20;1654252;87;20144;-87
2021/06/18 00:20:19;;;;;;;;;;;;;;;19.76;63.03;100382.75;1654287;87;20162;-88
2021/06/18 00:22:45;;;;;;;;;;;;;;;19.71;63.26;100373.55;1654294;87;20476;-87
2021/06/18 00:25:12;;;;;;;;;;;;;;;19.66;63.38;100371.39;1654282;86;20453;-87
2021/06/18 00:27:38;;;;;;;;;;;;;;;19.61;63.60;100370.53;1654101;87;20143;-87
2021/06/18 00:30:05;;;;;;;;;;;;;;;19.56;63.63;100366.17;1654526;86;20155;-87
2021/06/18 00:32:31;;;;;;;;;;;;;;;19.53;63.82;100366.52;1637014;87;20141;-87
2021/06/18 00:34:57;;;;;;;;;;;;;;;19.50;63.70;100368.69;1640845;86;20474;-87
2021/06/18 00:37:23;;;;;;;;;;;;;;;19.47;63.90;100373.04;1654379;86;20140;-87
2021/06/18 00:39:48;;;;;;;;;;;;;;;19.42;64.07;100373.55;1654649;87;20136;-87
2021/06/18 00:42:14;;;;;;;;;;;;;;;19.38;64.09;100370.38;1654501;87;20452;-87
2021/06/18 00:44:40;;;;;;;;;;;;;;;19.35;64.09;100364.53;1654667;87;20158;-87
2021/06/18 00:47:09;;;;;;;;;;;;;;;19.31;63.95;100361.83;1654174;87;20131;-87
2021/06/18 00:49:35;;;;;;;;;;;;;;;19.28;64.18;100363.03;1654306;87;20469;-87
2021/06/18 00:52:01;;;;;;;;;;;;;;;19.25;64.27;100355.81;1654230;87;20166;-87
2021/06/18 00:54:28;;;;;;;;;;;;;;;19.21;63.96;100356.64;1631252;87;20206;-87
2021/06/18 00:56:56;;;;;;;;;;;;;;;19.18;64.39;100352.48;1651466;87;20140;-87
2021/06/18 00:59:23;;;;;;;;;;;;;;;19.16;64.36;100349.64;1651266;87;20137;-88
2021/06/18 01:01:49;;;;;;;;;;;;;;;19.12;64.28;100347.80;1653869;87;20471;-88
2021/06/18 01:04:14;;;;;;;;;;;;;;;19.09;64.49;100350.80;1654682;87;20121;-87
2021/06/18 01:06:42;;;;;;;;;;;;;;;19.06;64.53;100340.94;1654335;87;20153;-87
2021/06/18 01:09:10;;;;;;;;;;;;;;;19.03;64.51;100342.11;1654625;87;20161;-86
2021/06/18 01:11:39;;;;;;;;;;;;;;;18.99;64.56;100338.09;1654350;87;20143;-87
2021/06/18 01:14:08;;;;;;;;;;;;;;;18.98;64.70;100341.75;1654168;85;20117;-87
2021/06/18 01:16:37;;;;;;;;;;;;;;;18.94;64.74;100339.08;1654231;86;20417;-86
2021/06/18 01:19:12;;;;;;;;;;;;;;;18.91;65.05;100334.06;1654217;87;20127;-87
2021/06/18 01:21:42;;;;;;;;;;;;;;;18.88;65.05;100333.05;1642516;87;20125;-87
2021/06/18 01:24:20;;;;;;;;;;;;;;;18.85;65.08;100336.88;1653723;87;20133;-86
2021/06/18 01:27:21;;;;;;;;;;;;;;;18.83;65.24;100339.41;1654320;86;20141;-86
2021/06/18 01:29:56;;;;;;;;;;;;;;;18.80;65.36;100335.73;1654634;87;20113;-87
2021/06/18 01:32:28;;;;;;;;;;;;;;;18.74;65.08;100339.88;1654314;86;20427;-86
2021/06/18 01:34:54;;;;;;;;;;;;;;;18.68;65.43;100333.31;1654861;86;20130;-86
2021/06/18 01:37:23;;;;;;;;;;;;;;;18.64;65.26;100329.30;1654134;87;20413;-87
2021/06/18 01:39:49;;;;;;;;;;;;;;;18.61;65.50;100329.63;1654341;86;20139;-86
2021/06/18 01:42:16;;;;;;;;;;;;;;;18.57;65.63;100334.14;1654261;87;20138;-86
2021/06/18 01:44:42;;;;;;;;;;;;;;;18.54;65.72;100338.47;1654533;86;20140;-86
2021/06/18 01:47:09;;;;;;;;;;;;;;;18.51;65.87;100338.28;1654399;87;20250;-86
2021/06/18 01:49:37;;;;;;;;;;;;;;;18.47;66.14;100338.28;1654490;87;20425;-87
2021/06/18 01:52:04;;;;;;;;;;;;;;;18.44;65.94;100341.27;1654051;87;20170;-86
2021/06/18 01:54:31;;;;;;;;;;;;;;;18.40;65.98;100334.09;1654176;87;20158;-87
2021/06/18 01:56:59;;;;;;;;;;;;;;;18.38;66.22;100341.92;1654067;87;20203;-86
2021/06/18 01:59:26;;;;;;;;;;;;;;;18.34;66.06;100344.58;1654415;87;20412;-87
2021/06/18 02:01:53;;;;;;;;;;;;;;;18.30;66.08;100340.06;1639884;87;20140;-87
2021/06/18 02:04:19;;;;;;;;;;;;;;;18.27;66.40;100333.70;1654549;86;20193;-87
2021/06/18 02:06:46;;;;;;;;;;;;;;;18.24;66.35;100336.19;1654339;86;20137;-87
2021/06/18 02:09:13;;;;;;;;;;;;;;;18.22;66.27;100335.50;1640958;87;20113;-87
2021/06/18 02:11:40;;;;;;;;;;;;;;;18.18;66.34;100340.84;1654594;86;20166;-87
2021/06/18 02:14:18;;;;;;;;;;;;;;;18.16;66.79;100332.64;1654458;87;20122;-87
2021/06/18 02:16:48;;;;;;;;;;;;;;;18.13;66.35;100332.48;1654246;86;20189;-87
2021/06/18 02:19:15;;;;;;;;;;;;;;;18.12;66.74;100322.78;1654030;86;20399;-87
2021/06/18 02:21:46;;;;;;;;;;;;;;;18.09;66.89;100315.59;1627988;88;20132;-87
2021/06/18 02:24:14;;;;;;;;;;;;;;;18.08;66.83;100327.28;1627921;88;20154;-87
2021/06/18 02:26:40;;;;;;;;;;;;;;;18.04;66.89;100324.92;1627758;88;20143;-87
2021/06/18 02:29:07;;;;;;;;;;;;;;;18.03;67.39;100326.41;1643286;87;20150;-87
2021/06/18 02:31:35;;;;;;;;;;;;;;;17.99;67.22;100323.72;1654465;87;20507;-87
2021/06/18 02:34:01;;;;;;;;;;;;;;;17.96;67.23;100327.53;1654741;86;20391;-87
2021/06/18 02:36:26;;;;;;;;;;;;;;;17.94;67.32;100330.88;1654468;87;20105;-87
2021/06/18 02:38:52;;;;;;;;;;;;;;;17.91;67.33;100333.87;1654286;86;20144;-87
2021/06/18 02:41:18;;;;;;;;;;;;;;;17.88;67.20;100328.84;1654438;87;20472;-87
2021/06/18 02:43:44;;;;;;;;;;;;;;;17.85;67.33;100323.81;1654474;87;20223;-87
2021/06/18 02:46:16;;;;;;;;;;;;;;;17.83;67.64;100330.30;1654501;86;20170;-87
2021/06/18 02:48:44;;;;;;;;;;;;;;;17.81;68.69;100332.64;1647940;87;20132;-87
2021/06/18 02:51:18;;;;;;;;;;;;;;;17.79;68.22;100335.13;1654369;87;20151;-87
2021/06/18 02:53:50;;;;;;;;;;;;;;;17.76;68.01;100340.74;1649469;85;20172;-87
2021/06/18 02:56:20;;;;;;;;;;;;;;;17.74;68.67;100344.08;1654949;86;20137;-87
2021/06/18 02:58:49;;;;;;;;;;;;;;;17.70;68.51;100345.37;1654564;86;20411;-88
2021/06/18 03:01:15;;;;;;;;;;;;;;;17.66;68.26;100344.84;1654299;85;20165;-87
2021/06/18 03:03:43;;;;;;;;;;;;;;;17.64;68.86;100352.69;1654356;86;20127;-87
2021/06/18 03:06:09;;;;;;;;;;;;;;;17.60;68.88;100354.81;1654609;87;20177;-87
2021/06/18 03:08:41;;;;;;;;;;;;;;;17.57;69.37;100357.31;1654382;87;20210;-88
2021/06/18 03:11:09;;;;;;;;;;;;;;;17.57;69.31;100363.13;1654466;86;20129;-88
2021/06/18 03:13:38;;;;;;;;;;;;;;;17.53;69.26;100363.09;1654509;87;20165;-87
2021/06/18 03:16:05;;;;;;;;;;;;;;;17.50;69.21;100362.91;1654431;85;20242;-88
2021/06/18 03:18:32;;;;;;;;;;;;;;;17.49;68.84;100355.08;1654890;85;20141;-88
2021/06/18 03:20:59;;;;;;;;;;;;;;;17.47;69.35;100358.38;1654531;86;20432;-88
2021/06/18 03:23:27;;;;;;;;;;;;;;;17.45;69.16;100359.88;1654366;87;20136;-88
2021/06/18 03:25:53;;;;;;;;;;;;;;;17.45;69.24;100363.88;1654456;86;20122;-88
2021/06/18 03:28:23;;;;;;;;;;;;;;;17.44;69.42;100364.89;1654590;86;20157;-87
2021/06/18 03:30:49;;;;;;;;;;;;;;;17.44;69.13;100372.02;1641367;86;20449;-88
2021/06/18 03:33:17;;;;;;;;;;;;;;;17.44;69.60;100377.36;1654367;87;20213;-88
2021/06/18 03:35:44;;;;;;;;;;;;;;;17.43;69.26;100373.86;1654432;87;20097;-88
2021/06/18 03:38:10;;;;;;;;;;;;;;;17.43;69.70;100375.69;1633492;87;20170;-88
2021/06/18 03:40:38;;;;;;;;;;;;;;;17.42;69.41;100378.03;1654460;87;20166;-87
2021/06/18 03:43:03;;;;;;;;;;;;;;;17.43;69.58;100379.70;1631879;87;20143;-87
2021/06/18 03:45:30;;;;;;;;;;;;;;;17.41;69.34;100375.86;1654381;86;20452;-88
2021/06/18 03:47:57;;;;;;;;;;;;;;;17.42;69.78;100385.53;1654216;87;20161;-87
2021/06/18 03:50:23;;;;;;;;;;;;;;;17.42;70.48;100377.53;1654329;86;20106;-88
2021/06/18 03:52:49;;;;;;;;;;;;;;;17.41;69.71;100375.03;1654515;86;20150;-88
2021/06/18 03:55:15;;;;;;;;;;;;;;;17.42;69.72;100377.53;1655022;85;20107;-88
2021/06/18 03:57:47;;;;;;;;;;;;;;;17.42;69.82;100367.36;1654505;86;20140;-87
2021/06/18 04:00:14;;;;;;;;;;;;;;;17.43;69.83;100373.03;1643183;86;20147;-87
2021/06/18 04:02:40;;;;;;;;;;;;;;;17.45;70.25;100378.55;1653991;87;20121;-88
2021/06/18 04:05:08;;;;;;;;;;;;;;;17.45;70.15;100368.39;1654498;86;20130;-88
2021/06/18 04:07:34;;;;;;;;;;;;;;;17.46;69.87;100364.72;1654466;85;20202;-87
2021/06/18 04:10:01;;;;;;;;;;;;;;;17.48;70.11;100369.41;1654659;86;20269;-88
2021/06/18 04:12:27;;;;;;;;;;;;;;;17.50;69.95;100364.74;1654165;87;20162;-88
2021/06/18 04:14:55;;;;;;;;;;;;;;;17.51;70.08;100365.11;1654512;86;20166;-88
2021/06/18 04:17:21;;;;;;;;;;;;;;;17.52;70.18;100358.27;1654148;87;20162;-88
2021/06/18 04:19:47;;;;;;;;;;;;;;;17.54;70.36;100366.13;1654488;86;20467;-88
2021/06/18 04:22:16;;;;;;;;;;;;;;;17.56;70.26;100364.12;1654448;87;20129;-88
2021/06/18 04:24:42;;;;;;;;;;;;;;;17.58;70.27;100362.15;1654644;86;20231;-87
2021/06/18 04:27:08;;;;;;;;;;;;;;;17.61;70.49;100365.84;1654079;86;20169;-88
2021/06/18 04:29:34;;;;;;;;;;;;;;;17.64;70.54;100362.03;1654394;86;20171;-88
2021/06/18 04:31:59;;;;;;;;;;;;;;;17.68;70.54;100364.72;1654158;86;20174;-88
2021/06/18 04:34:25;;;;;;;;;;;;;;;17.71;70.59;100371.08;1654522;86;20131;-87
2021/06/18 04:36:51;;;;;;;;;;;;;;;17.73;70.62;100372.58;1654107;87;20180;-88
2021/06/18 04:39:16;;;;;;;;;;;;;;;17.77;70.73;100361.98;1654475;87;20441;-88
2021/06/18 04:41:43;;;;;;;;;;;;;;;17.81;70.75;100359.33;1654200;86;20162;-88
2021/06/18 04:44:09;;;;;;;;;;;;;;;17.86;70.77;100358.02;1654171;86;20143;-88
2021/06/18 04:46:35;;;;;;;;;;;;;;;17.88;70.78;100354.20;1654381;86;20123;-88
2021/06/18 04:49:00;;;;;;;;;;;;;;;17.92;70.81;100362.23;1654454;85;20167;-89
2021/06/18 04:51:26;;;;;;;;;;;;;;;17.95;70.78;100368.58;1654440;86;20110;-88
2021/06/18 04:53:53;;;;;;;;;;;;;;;17.99;70.62;100368.59;1654335;87;20975;-89
2021/06/18 04:56:19;;;;;;;;;;;;;;;18.03;70.70;100369.98;1654474;87;20117;-88
2021/06/18 04:58:44;;;;;;;;;;;;;;;18.08;70.62;100365.48;1654393;86;20140;-88
2021/06/18 05:01:10;;;;;;;;;;;;;;;18.12;70.71;100360.16;1654439;87;20130;-87
2021/06/18 05:03:36;;;;;;;;;;;;;;;18.17;70.63;100364.54;1654571;86;20137;-88
2021/06/18 05:06:03;;;;;;;;;;;;;;;18.21;70.69;100365.89;1654511;87;20133;-88
2021/06/18 05:08:28;;;;;;;;;;;;;;;18.27;70.78;100363.09;1654373;86;20165;-87
2021/06/18 05:10:54;;;;;;;;;;;;;;;18.32;70.71;100365.27;1654810;86;20136;-87
2021/06/18 05:13:20;;;;;;;;;;;;;;;18.37;70.60;100363.79;1654321;87;20460;-88
2021/06/18 05:15:45;;;;;;;;;;;;;;;18.43;70.76;100362.31;1654569;87;20141;-87
2021/06/18 05:18:11;;;;;;;;;;;;;;;18.47;70.61;100363.66;1654448;86;20204;-87
2021/06/18 05:20:37;;;;;;;;;;;;;;;18.54;70.72;100362.52;1654631;87;20129;-88
2021/06/18 05:23:03;;;;;;;;;;;;;;;18.60;70.66;100357.86;1654605;87;20134;-88
2021/06/18 05:25:29;;;;;;;;;;;;;;;18.65;71.03;100361.70;1654444;87;20133;-88
2021/06/18 05:27:54;;;;;;;;;;;;;;;18.72;72.05;100361.45;1654428;87;20101;-88
2021/06/18 05:30:20;;;;;;;;;;;;;;;18.81;70.96;100365.45;1654622;87;20105;-87
2021/06/18 05:32:47;;;;;;;;;;;;;;;18.85;70.45;100359.61;1654577;87;20113;-88
2021/06/18 05:35:14;;;;;;;;;;;;;;;18.91;70.90;100366.98;1654640;86;20542;-87
2021/06/18 05:37:40;;;;;;;;;;;;;;;18.99;70.67;100371.52;1654509;86;20181;-87
2021/06/18 05:40:06;;;;;;;;;;;;;;;19.05;70.46;100373.54;1654721;87;20165;-88
2021/06/18 05:42:33;;;;;;;;;;;;;;;19.11;70.26;100372.84;1654536;87;20114;-88
2021/06/18 05:44:59;;;;;;;;;;;;;;;19.18;70.37;100375.70;1654857;87;20165;-87
2021/06/18 05:47:24;;;;;;;;;;;;;;;19.24;70.01;100371.53;1654543;87;20450;-88
2021/06/18 05:49:50;;;;;;;;;;;;;;;19.31;70.19;100376.55;1654650;87;20163;-89
2021/06/18 05:52:16;;;;;;;;;;;;;;;19.38;70.04;100369.52;1654491;86;20117;-89
2021/06/18 05:54:42;;;;;;;;;;;;;;;19.45;69.58;100371.89;1654690;86;20141;-89
2021/06/18 05:57:08;;;;;;;;;;;;;;;19.52;69.41;100371.55;1654427;86;20109;-88
2021/06/18 05:59:33;;;;;;;;;;;;;;;19.58;69.59;100371.38;1654611;87;20113;-88
2021/06/18 06:01:59;;;;;;;;;;;;;;;19.66;69.84;100378.91;1654456;87;20573;-85
2021/06/18 06:04:25;;;;;;;;;;;;;;;19.73;69.77;100371.04;1654485;86;20125;-80
2021/06/18 06:06:50;;;;;;;;;;;;;;;19.81;69.47;100375.53;1654232;86;20160;-80
2021/06/18 06:09:16;;;;;;;;;;;;;;;19.87;69.31;100370.36;1654543;87;20378;-79
2021/06/18 06:11:41;;;;;;;;;;;;;;;19.95;68.86;100376.20;1654499;86;20093;-80
2021/06/18 06:14:08;;;;;;;;;;;;;;;20.03;69.01;100385.53;1654520;87;20141;-81
2021/06/18 06:16:35;;;;;;;;;;;;;;;20.10;69.18;100385.20;1654222;87;20118;-80
2021/06/18 06:19:01;;;;;;;;;;;;;;;20.18;69.05;100387.02;1654589;87;20145;-81
2021/06/18 06:21:27;;;;;;;;;;;;;;;20.25;68.69;100386.65;1654532;87;20559;-80
2021/06/18 06:23:53;;;;;;;;;;;;;;;20.33;68.42;100385.77;1654603;86;20125;-79
2021/06/18 06:26:20;;;;;;;;;;;;;;;20.41;68.52;100388.95;1654683;86;20132;-80
2021/06/18 06:28:46;;;;;;;;;;;;;;;20.47;68.23;100394.45;1654488;86;20180;-80
2021/06/18 06:31:11;;;;;;;;;;;;;;;20.54;68.17;100385.23;1654593;86;20153;-80
2021/06/18 06:33:37;;;;;;;;;;;;;;;20.61;68.36;100385.69;1654401;87;20159;-80
2021/06/18 06:36:03;;;;;;;;;;;;;;;20.69;68.19;100383.47;1654551;87;20093;-80
2021/06/18 06:38:29;;;;;;;;;;;;;;;20.77;68.01;100381.27;1654293;86;20145;-80
2021/06/18 06:40:55;;;;;;;;;;;;;;;20.84;68.16;100385.73;1654559;86;20126;-80
2021/06/18 06:43:21;;;;;;;;;;;;;;;20.92;67.71;100388.87;1654462;87;20538;-80
2021/06/18 06:45:47;;;;;;;;;;;;;;;21.01;67.50;100385.13;1654449;86;20129;-79
2021/06/18 06:48:13;;;;;;;;;;;;;;;21.08;67.62;100375.34;1654452;87;20146;-80
2021/06/18 06:50:39;;;;;;;;;;;;;;;21.19;67.61;100379.48;1654434;86;20450;-81
2021/06/18 06:53:07;;;;;;;;;;;;;;;21.28;67.75;100374.88;1654538;86;20137;-80
2021/06/18 06:55:34;;;;;;;;;;;;;;;21.37;67.87;100373.83;1654563;87;20097;-80
2021/06/18 06:58:00;;;;;;;;;;;;;;;21.46;67.57;100371.92;1654515;86;20931;-80
2021/06/18 07:00:25;;;;;;;;;;;;;;;21.58;67.78;100376.33;1654612;86;20133;-80
2021/06/18 07:02:51;;;;;;;;;;;;;;;21.67;67.40;100377.94;1654735;86;20498;-80
2021/06/18 07:05:17;;;;;;;;;;;;;;;21.75;67.20;100380.05;1654578;86;20136;-80
2021/06/18 07:07:43;;;;;;;;;;;;;;;21.84;67.02;100379.95;1654461;86;20165;-80
2021/06/18 07:10:09;;;;;;;;;;;;;;;21.95;66.49;100378.17;1654701;86;20109;-80
2021/06/18 07:12:35;;;;;;;;;;;;;;;22.03;66.74;100370.01;1654417;86;20093;-80
2021/06/18 07:15:01;;;;;;;;;;;;;;;22.14;66.90;100368.70;1654740;87;20113;-80
2021/06/18 07:17:26;;;;;;;;;;;;;;;22.24;66.80;100362.56;1654401;87;20097;-80
2021/06/18 07:19:54;;;;;;;;;;;;;;;22.35;67.01;100363.45;1654479;87;20163;-80
2021/06/18 07:22:21;;;;;;;;;;;;;;;22.45;66.94;100357.27;1654355;87;20140;-80
2021/06/18 07:24:48;;;;;;;;;;;;;;;22.58;66.22;100359.81;1654688;86;20129;-80
2021/06/18 07:27:15;;;;;;;;;;;;;;;22.69;66.15;100364.17;1654244;86;20165;-80
2021/06/18 07:29:42;;;;;;;;;;;;;;;22.80;65.78;100357.97;1654513;86;20168;-80
2021/06/18 07:32:08;;;;;;;;;;;;;;;22.93;65.56;100364.87;1654340;86;20190;-80
2021/06/18 07:34:35;;;;;;;;;;;;;;;23.02;65.82;100356.17;1654487;86;20113;-80
2021/06/18 07:37:01;;;;;;;;;;;;;;;23.13;65.59;100355.16;1654465;86;20136;-80
2021/06/18 07:39:26;;;;;;;;;;;;;;;23.26;64.99;100358.98;1654562;86;20133;-80
2021/06/18 07:41:52;;;;;;;;;;;;;;;23.36;65.00;100353.61;1654395;87;20177;-80
2021/06/18 07:44:18;;;;;;;;;;;;;;;23.46;65.01;100353.28;1654585;86;20185;-80
2021/06/18 07:46:44;;;;;;;;;;;;;;;23.56;65.30;100345.69;1654485;86;20136;-80
2021/06/18 07:49:10;;;;;;;;;;;;;;;23.68;65.04;100352.73;1654509;87;20165;-80
2021/06/18 07:51:35;;;;;;;;;;;;;;;23.79;64.96;100345.95;1654435;87;20152;-80
2021/06/18 07:54:01;;;;;;;;;;;;;;;23.90;64.34;100336.52;1654550;86;20128;-80
2021/06/18 07:56:30;;;;;;;;;;;;;;;24.01;64.62;100335.42;1654485;86;20097;-81
2021/06/18 07:58:54;;;;;;;;;;;;;;;24.11;64.38;100335.06;1654346;86;20515;-80
2021/06/18 08:01:20;;;;;;;;;;;;;;;24.23;63.84;100330.78;1645437;86;20182;-80
2021/06/18 08:03:46;;;;;;;;;;;;;;;24.35;63.75;100327.00;1626565;87;20164;-80
2021/06/18 08:06:12;;;;;;;;;;;;;;;24.46;63.59;100325.61;1626607;88;20127;-81
2021/06/18 08:08:38;;;;;;;;;;;;;;;24.56;63.93;100323.36;1650141;87;20105;-80
2021/06/18 08:11:04;;;;;;;;;;;;;;;24.68;63.68;100320.40;1654825;86;20132;-80
2021/06/18 08:13:30;;;;;;;;;;;;;;;24.75;62.97;100313.67;1654358;86;20160;-80
2021/06/18 08:15:55;;;;;;;;;;;;;;;24.92;63.03;100324.91;1650102;86;20425;-80
2021/06/18 08:18:21;;;;;;;;;;;;;;;25.04;62.12;100318.70;1641674;86;20181;-80
2021/06/18 08:20:48;;;;;;;;;;;;;;;25.17;62.21;100318.41;1639370;87;20144;-80
2021/06/18 08:23:14;;;;;;;;;;;;;;;25.28;62.31;100319.16;1628384;86;20111;-80
2021/06/18 08:25:40;;;;;;;;;;;;;;;25.38;61.69;100316.03;1626559;88;20160;-80
2021/06/18 08:28:06;;;;;;;;;;;;;;;25.49;61.19;100314.87;1626446;88;20108;-80
2021/06/18 08:30:32;;;;;;;;;;;;;;;25.62;61.47;100310.50;1626644;87;20107;-80
2021/06/18 08:32:58;;;;;;;;;;;;;;;25.73;61.21;100314.75;1642665;85;20136;-80
2021/06/18 08:35:24;;;;;;;;;;;;;;;25.86;61.51;100301.73;1639918;87;20113;-80
2021/06/18 08:37:50;;;;;;;;;;;;;;;25.99;60.21;100309.50;1638234;86;20160;-81
2021/06/18 08:40:17;;;;;;;;;;;;;;;26.10;60.11;100300.22;1653645;86;20150;-80
2021/06/18 08:42:42;;;;;;;;;;;;;;;26.21;60.10;100309.53;1653175;86;20403;-81
2021/06/18 08:45:09;;;;;;;;;;;;;;;26.34;59.77;100307.30;1654658;86;20098;-80
2021/06/18 08:47:37;;;;;;;;;;;;;;;26.45;59.02;100303.91;1654306;87;20546;-82
2021/06/18 08:50:03;;;;;;;;;;;;;;;26.56;58.20;100307.33;1654588;86;20109;-80
2021/06/18 08:52:29;;;;;;;;;;;;;;;26.65;57.72;100305.17;1654395;86;20129;-80
2021/06/18 08:54:56;;;;;;;;;;;;;;;26.76;57.55;100306.38;1654707;86;20128;-80
2021/06/18 08:57:22;;;;;;;;;;;;;;;26.83;57.40;100309.34;1640699;87;20129;-80
2021/06/18 08:59:51;;;;;;;;;;;;;;;26.92;56.64;100304.51;1654607;86;20132;-80
2021/06/18 09:02:18;;;;;;;;;;;;;;;27.01;56.76;100300.45;1654228;86;20148;-82
2021/06/18 09:05:09;;;;;;;;;;;;;;;27.11;55.83;100297.26;1654594;86;20105;-80
2021/06/18 09:07:50;;;;;;;;;;;;;;;27.18;55.56;100296.73;1632764;86;20100;-79
2021/06/18 09:10:37;;;;;;;;;;;;;;;27.30;55.38;100300.36;1626621;88;20422;-80
2021/06/18 09:13:16;;;;;;;;;;;;;;;27.40;53.59;100302.57;1626502;88;20119;-79
2021/06/18 09:15:54;;;;;;;;;;;;;;;27.49;54.79;100302.59;1650016;87;20145;-79
2021/06/18 09:18:39;;;;;;;;;;;;;;;27.56;54.58;100291.16;1651550;86;20161;-79
2021/06/18 09:21:12;;;;;;;;;;;;;;;27.69;54.31;100293.45;1638113;86;20160;-79
2021/06/18 09:23:43;;;;;;;;;;;;;;;27.80;53.03;100295.42;1654261;85;20209;-79
2021/06/18 09:26:24;;;;;;;;;;;;;;;27.90;52.43;100287.59;1653893;85;20412;-80
2021/06/18 09:29:14;;;;;;;;;;;;;;;28.00;52.14;100287.92;1653789;86;20200;-80
2021/06/18 09:32:00;;;;;;;;;;;;;;;28.10;51.45;100283.32;1660703;85;20190;-80
2021/06/18 09:37:36;;;;;;;;;;;;;;;28.29;50.57;100280.85;1667287;85;20172;-80
2021/06/18 09:40:19;;;;;;;;;;;;;;;28.40;49.40;100275.77;1668510;85;20150;-80
2021/06/18 09:43:01;;;;;;;;;;;;;;;28.49;49.66;100273.83;1668666;85;20174;-80
2021/06/18 09:45:33;;;;;;;;;;;;;;;28.60;49.50;100280.38;1646119;87;20140;-80
2021/06/18 09:48:16;;;;;;;;;;;;;;;28.69;49.47;100276.78;1641042;87;20153;-81
2021/06/18 09:50:44;;;;;;;;;;;;;;;28.81;49.25;100280.37;1641465;87;20121;-80
2021/06/18 09:53:23;;;;;;;;;;;;;;;28.92;49.21;100273.30;1643616;87;20144;-80
2021/06/18 09:56:04;;;;;;;;;;;;;;;29.03;47.86;100275.80;1640971;86;20104;-86
2021/06/18 09:58:36;;;;;;;;;;;;;;;29.13;47.86;100274.14;1645297;87;20149;-87
2021/06/18 10:01:27;;;;;;;;;;;;;;;29.24;47.43;100279.82;1640039;87;20489;-87
2021/06/18 10:03:59;;;;;;;;;;;;;;;29.32;47.24;100277.59;1646242;87;20216;-86
2021/06/18 10:06:25;;;;;;;;;;;;;;;29.45;47.22;100269.70;1644505;87;20172;-85
2021/06/18 10:08:52;;;;;;;;;;;;;;;29.56;47.45;100269.42;1641394;86;20467;-87
2021/06/18 10:11:18;;;;;;;;;;;;;;;29.66;47.52;100274.58;1648088;87;20174;-86
2021/06/18 10:13:44;;;;;;;;;;;;;;;29.76;46.43;100267.72;1643087;86;20146;-83
2021/06/18 10:16:09;;;;;;;;;;;;;;;29.83;46.37;100261.61;1641802;86;20456;-84
2021/06/18 10:18:35;;;;;;;;;;;;;;;29.90;46.60;100254.96;1646032;86;20155;-84
2021/06/18 10:21:04;;;;;;;;;;;;;;;29.98;45.53;100257.01;1644828;87;20097;-84
2021/06/18 10:23:31;;;;;;;;;;;;;;;30.03;45.05;100252.50;1638219;87;20121;-87
2021/06/18 10:25:59;;;;;;;;;;;;;;;30.10;44.02;100244.20;1641700;87;20141;-85
2021/06/18 10:28:30;;;;;;;;;;;;;;;30.17;45.23;100242.70;1638703;87;20174;-84
2021/06/18 10:30:57;;;;;;;;;;;;;;;30.24;44.69;100246.98;1638615;86;20509;-85
2021/06/18 10:33:29;;;;;;;;;;;;;;;30.30;44.61;100243.80;1641239;86;20109;-84
2021/06/18 10:36:10;;;;;;;;;;;;;;;30.35;43.37;100242.55;1640228;87;20136;-84
2021/06/18 10:38:44;;;;;;;;;;;;;;;30.42;44.47;100241.04;1642446;86;20221;-85
2021/06/18 10:41:19;;;;;;;;;;;;;;;30.52;43.59;100241.22;1640096;87;20162;-84
2021/06/18 10:43:49;;;;;;;;;;;;;;;30.59;43.33;100236.44;1642419;86;20171;-88
2021/06/18 10:46:28;;;;;;;;;;;;;;;30.67;42.80;100240.64;1638174;86;20137;-85
2021/06/18 10:49:05;;;;;;;;;;;;;;;30.70;42.06;100238.80;1643647;86;20143;-86
2021/06/18 10:51:34;;;;;;;;;;;;;;;30.75;43.44;100236.17;1642288;87;20471;-85
2021/06/18 10:54:10;;;;;;;;;;;;;;;30.79;42.85;100228.64;1641342;87;20431;-86
2021/06/18 10:56:48;;;;;;;;;;;;;;;30.89;42.34;100228.53;1639695;87;20326;-86
2021/06/18 10:59:29;;;;;;;;;;;;;;;31.01;43.16;100221.10;1638791;86;20562;-86
2021/06/18 11:01:55;;;;;;;;;;;;;;;31.08;42.69;100228.02;1642186;87;20145;-86
2021/06/18 11:04:43;;;;;;;;;;;;;;;31.17;42.60;100224.89;1644576;87;20113;-85
2021/06/18 11:07:38;;;;;;;;;;;;;;;31.26;42.37;100229.67;1572918;86;20102;-86
2021/06/18 11:10:14;;;;;;;;;;;;;;;31.35;41.94;100231.44;1645257;85;20133;-86
2021/06/18 11:12:46;;;;;;;;;;;;;;;31.44;40.91;100223.67;1647565;86;20147;-86
2021/06/18 11:15:25;;;;;;;;;;;;;;;31.49;42.14;100218.27;1638175;87;20146;-85
2021/06/18 11:18:37;;;;;;;;;;;;;;;31.53;41.37;100215.34;1642220;86;20477;-85
2021/06/18 11:20:38;;;;;;;;;;;;;;;31.54;41.08;100216.98;1633928;87;20215;-85
2021/06/18 11:23:12;;;;;;;;;;;;;;;31.58;41.63;100212.67;1637860;87;20153;-85
2021/06/18 11:25:42;;;;;;;;;;;;;;;31.66;42.56;100208.70;1642272;86;20147;-86
2021/06/18 11:28:24;;;;;;;;;;;;;;;31.71;41.08;100207.38;1643334;85;20138;-86
2021/06/18 11:30:57;;;;;;;;;;;;;;;31.76;41.05;100206.91;1643122;87;20141;-85
2021/06/18 11:33:45;;;;;;;;;;;;;;;31.85;41.10;100213.27;1653840;85;20142;-86
2021/06/18 11:36:20;;;;;;;;;;;;;;;31.91;41.12;100204.92;1664611;85;20167;-85
2021/06/18 11:38:53;;;;;;;;;;;;;;;32.02;40.58;100205.89;1653932;85;20135;-86
2021/06/18 11:41:21;;;;;;;;;;;;;;;32.12;40.43;100207.91;1661378;85;20097;-87
2021/06/18 11:43:49;;;;;;;;;;;;;;;32.18;39.97;100201.39;1657464;85;20140;-88
2021/06/18 11:46:15;;;;;;;;;;;;;;;32.25;39.99;100204.77;1660299;85;20175;-87
2021/06/18 11:48:41;;;;;;;;;;;;;;;32.32;39.66;100196.37;1658883;85;20133;-87
2021/06/18 11:51:06;;;;;;;;;;;;;;;32.37;39.06;100198.58;1643942;85;20162;-86
2021/06/18 11:53:37;;;;;;;;;;;;;;;32.43;38.26;100196.77;1640208;85;20438;-89
2021/06/18 11:56:03;;;;;;;;;;;;;;;32.47;37.81;100193.80;1654677;86;20392;-86
2021/06/18 11:58:33;;;;;;;;;;;;;;;32.51;37.62;100190.00;1664134;85;20136;-85
2021/06/18 12:01:11;;;;;;;;;;;;;;;32.52;36.57;100191.12;1657514;85;20165;-87
2021/06/18 12:03:37;;;;;;;;;;;;;;;32.52;37.19;100187.02;1667018;85;20134;-88
2021/06/18 12:06:16;;;;;;;;;;;;;;;32.58;36.79;100195.55;1682171;84;20138;-86
2021/06/18 12:09:03;;;;;;;;;;;;;;;32.62;36.42;100188.47;1671394;85;20167;-85
2021/06/18 12:11:31;;;;;;;;;;;;;;;32.67;36.55;100194.50;1656275;85;20132;-86
2021/06/18 12:13:57;;;;;;;;;;;;;;;32.69;35.79;100191.80;1654334;86;20144;-85
2021/06/18 12:16:27;;;;;;;;;;;;;;;32.70;36.03;100190.70;1664696;85;20129;-87
2021/06/18 12:18:53;;;;;;;;;;;;;;;32.76;35.80;100192.13;1654420;86;20117;-86
2021/06/18 12:21:26;;;;;;;;;;;;;;;32.77;35.63;100189.67;1633891;87;20131;-86
2021/06/18 12:24:03;;;;;;;;;;;;;;;32.81;36.68;100194.91;1628067;88;20135;-84
2021/06/18 12:26:30;;;;;;;;;;;;;;;32.87;35.05;100190.59;1627388;88;20131;-85
2021/06/18 12:28:57;;;;;;;;;;;;;;;32.90;35.83;100191.95;1627844;88;20148;-87
2021/06/18 12:31:22;;;;;;;;;;;;;;;32.91;34.85;100184.05;1627449;87;20438;-87
2021/06/18 12:33:48;;;;;;;;;;;;;;;32.90;34.98;100191.41;1629923;85;20115;-86
2021/06/18 12:36:18;;;;;;;;;;;;;;;32.92;35.48;100184.33;1654712;87;20105;-85
2021/06/18 12:38:47;;;;;;;;;;;;;;;32.95;34.88;100184.35;1653943;87;20141;-86
2021/06/18 12:41:27;;;;;;;;;;;;;;;32.97;35.71;100181.64;1654620;87;20161;-84
2021/06/18 12:44:03;;;;;;;;;;;;;;;33.01;34.75;100185.52;1628528;86;20135;-86
2021/06/18 12:46:29;;;;;;;;;;;;;;;32.99;34.17;100192.33;1626450;88;20147;-86